< Typhoon 200509 2005 Season Typhoon 200511 >
Typhoon 200510 (SANVU)
General InformationTrack Information on Google MapsDetailed Wind InformationAccess Analytics MapList of All Images || NewsDisaster Info.WeblogTrackbackTyphoon FrontResourceGoogle EarthGE AnimationAtom FeedGeoJSON
Detalied Best Track (Time Zone = UTC)
Year Month Day Hour Lat. Long. Pressure (hPa) Wind (kt) Class Image Chart
2005 8 9 18 14.0 130.6 1002 0 2 Image Chart
2005 8 10 00 14.3 130.1 1002 0 2 Image Chart
2005 8 10 06 14.5 129.5 998 0 2 Image Chart
2005 8 10 12 15.0 128.7 998 0 2 Image Chart
2005 8 10 18 15.5 128.0 998 0 2 Image Chart
2005 8 11 00 16.1 126.3 996 0 2 Image Chart
2005 8 11 06 17.1 124.6 994 35 3 Image Chart
2005 8 11 12 18.1 123.1 994 40 3 Image Chart
2005 8 11 18 19.0 121.0 992 40 3 Image Chart
2005 8 12 00 19.4 120.0 992 40 3 Image Chart
2005 8 12 06 19.9 119.1 990 45 3 Image Chart
2005 8 12 12 20.5 118.5 990 50 4 Image Chart
2005 8 12 18 21.5 117.7 985 50 4 Image Chart
2005 8 13 00 22.7 117.1 985 50 4 Image Chart
2005 8 13 06 23.7 116.3 985 50 4 Image Chart
2005 8 13 12 25.1 115.8 992 35 3 Image Chart
2005 8 13 18 26.3 115.3 996 0 2 Image Chart
2005 8 14 00 27.0 115.1 998 0 2 Image Chart
2005 8 14 06 27.5 114.5 998 0 2 Image Chart
2005 8 14 12 28.5 113.5 1000 0 2 Image Chart
2005 8 14 18 29.0 112.5 1000 0 2 Image Chart
Japan Meteorological Agency Best Track Data | Correction Date : 2005-12-19
< Typhoon 200509 2005 Season Typhoon 200511 >

Help